Time;durP1;ratioP1;P1;durP2;ratioP2;P2;SDS_P1;SDS_P2;PMS_P1;PMS_P2;Temp;Humidity;BMP_temperature;BMP_pressure;BME280_temperature;BME280_humidity;BME280_pressure;Samples;Min_cycle;Max_cycle;Signal;HPM_P1;HPM_P2
2023/12/29 00:00:05;;;;;;;20.63;12.87;;;;;;;3.13;100.00;102107.25;2078533;28;20615;-73
2023/12/29 00:01:05;;;;;;;16.77;10.02;;;;;;;3.14;100.00;102106.09;2078958;28;20180;-73
2023/12/29 00:02:06;;;;;;;18.77;10.60;;;;;;;3.18;100.00;102111.72;2078998;28;20191;-74
2023/12/29 00:03:06;;;;;;;17.60;10.67;;;;;;;2.85;100.00;102051.66;2079252;28;20179;-73
2023/12/29 00:04:07;;;;;;;18.10;10.37;;;;;;;3.12;100.00;102096.66;2078230;28;20375;-73
2023/12/29 00:05:07;;;;;;;16.77;11.03;;;;;;;3.16;100.00;102106.59;2078255;28;20769;-73
2023/12/29 00:06:08;;;;;;;20.07;10.23;;;;;;;3.20;100.00;102101.19;2080028;28;20195;-74
2023/12/29 00:07:08;;;;;;;20.00;10.57;;;;;;;2.62;100.00;102005.97;2079183;28;20656;-73
2023/12/29 00:08:09;;;;;;;19.43;10.77;;;;;;;3.23;100.00;102106.78;2079434;28;20205;-72
2023/12/29 00:09:09;;;;;;;23.20;13.90;;;;;;;3.26;100.00;102113.50;2079584;28;20607;-73
2023/12/29 00:10:10;;;;;;;17.33;10.30;;;;;;;3.17;100.00;102105.44;2079640;28;20185;-73
2023/12/29 00:11:17;;;;;;;17.83;10.20;;;;;;;3.24;100.00;102130.28;2080708;28;20206;-73
2023/12/29 00:12:17;;;;;;;18.45;12.88;;;;;;;3.24;100.00;102115.81;2080598;28;20238;-74
2023/12/29 00:13:22;;;;;;;19.00;12.63;;;;;;;3.20;100.00;102114.91;2080220;28;20196;-73
2023/12/29 00:14:23;;;;;;;19.52;10.45;;;;;;;3.20;100.00;102107.50;2079762;28;20648;-73
2023/12/29 00:15:23;;;;;;;17.33;10.37;;;;;;;3.20;100.00;102121.19;2079869;28;20187;-73
2023/12/29 00:16:24;;;;;;;17.33;9.93;;;;;;;2.79;100.00;102052.25;2080060;28;20198;-73
2023/12/29 00:17:24;;;;;;;19.27;10.53;;;;;;;3.20;100.00;102117.63;2079436;28;20191;-73
2023/12/29 00:18:25;;;;;;;20.50;12.83;;;;;;;2.42;100.00;102002.22;2080013;28;20661;-74
2023/12/29 00:19:25;;;;;;;18.00;12.00;;;;;;;3.20;100.00;102110.22;2080464;28;20534;-73
2023/12/29 00:20:26;;;;;;;15.10;10.33;;;;;;;2.87;100.00;102051.31;2079368;28;20203;-73
2023/12/29 00:21:26;;;;;;;20.67;10.27;;;;;;;3.19;100.00;102105.88;2080025;28;20213;-74
2023/12/29 00:22:27;;;;;;;17.37;10.63;;;;;;;3.22;100.00;102116.16;2079653;28;20234;-73
2023/12/29 00:23:27;;;;;;;21.93;11.23;;;;;;;3.06;100.00;102090.63;2079518;28;20188;-73
2023/12/29 00:24:31;;;;;;;21.33;12.93;;;;;;;3.17;100.00;102118.31;2080170;28;20198;-73
2023/12/29 00:25:31;;;;;;;22.70;14.00;;;;;;;2.55;100.00;102013.94;2080083;28;20285;-73
2023/12/29 00:26:32;;;;;;;21.47;13.43;;;;;;;3.17;100.00;102110.09;2079465;28;20197;-73
2023/12/29 00:27:32;;;;;;;19.90;10.70;;;;;;;2.30;100.00;101980.38;2078859;28;20234;-73
2023/12/29 00:28:35;;;;;;;20.47;13.37;;;;;;;2.93;100.00;102086.31;2080280;28;20266;-73
2023/12/29 00:29:36;;;;;;;19.70;10.63;;;;;;;2.73;100.00;102039.94;2080054;28;20478;-73
2023/12/29 00:30:40;;;;;;;24.03;11.37;;;;;;;2.57;100.00;102020.69;2080785;28;20230;-74
2023/12/29 00:31:41;;;;;;;20.45;12.23;;;;;;;2.71;100.00;102043.00;2080019;28;20188;-73
2023/12/29 00:32:42;;;;;;;23.50;13.52;;;;;;;2.60;100.00;102017.25;2079436;28;20195;-74
2023/12/29 00:33:43;;;;;;;16.60;9.57;;;;;;;2.82;100.00;102074.25;2079233;28;20265;-74
2023/12/29 00:34:44;;;;;;;18.25;10.77;;;;;;;3.20;100.00;102114.91;2080273;28;20194;-73
2023/12/29 00:35:44;;;;;;;18.77;12.37;;;;;;;2.67;100.00;102024.91;2080109;28;20668;-73
2023/12/29 00:36:45;;;;;;;17.23;10.07;;;;;;;3.14;100.00;102100.63;2078577;28;20192;-73
2023/12/29 00:37:45;;;;;;;21.37;10.60;;;;;;;3.21;100.00;102113.75;2079332;28;20191;-73
2023/12/29 00:38:46;;;;;;;16.97;10.23;;;;;;;2.58;100.00;102007.81;2080643;28;20212;-73
2023/12/29 00:39:46;;;;;;;19.37;10.43;;;;;;;3.19;100.00;102102.34;2080281;28;20195;-73
2023/12/29 00:40:47;;;;;;;19.67;10.73;;;;;;;2.71;100.00;102032.06;2079750;28;20680;-73
2023/12/29 00:41:47;;;;;;;16.67;9.97;;;;;;;3.25;100.00;102111.91;2080485;28;20190;-73
2023/12/29 00:42:48;;;;;;;14.67;9.53;;;;;;;2.78;100.00;102047.91;2079951;28;20198;-73
2023/12/29 00:43:48;;;;;;;20.20;12.77;;;;;;;3.12;100.00;102110.34;2079687;28;20217;-73
2023/12/29 00:44:49;;;;;;;23.37;10.83;;;;;;;3.14;100.00;102108.06;2079713;28;20680;-73
2023/12/29 00:45:49;;;;;;;16.33;10.23;;;;;;;2.60;100.00;102041.09;2079024;28;20665;-73
2023/12/29 00:46:50;;;;;;;14.00;9.20;;;;;;;3.19;100.00;102116.03;2079438;28;20190;-73
2023/12/29 00:47:51;;;;;;;19.67;12.70;;;;;;;3.18;100.00;102119.94;2080386;28;20315;-73
2023/12/29 00:48:52;;;;;;;16.98;10.05;;;;;;;3.16;100.00;102119.47;2079891;28;20681;-74
2023/12/29 00:49:52;;;;;;;16.87;9.50;;;;;;;3.11;100.00;102106.81;2079304;28;20259;-74
2023/12/29 00:50:53;;;;;;;19.00;12.07;;;;;;;3.04;100.00;102114.81;2079460;28;20760;-73
2023/12/29 00:51:53;;;;;;;19.70;12.10;;;;;;;2.64;100.00;102042.00;2080028;28;20671;-74
2023/12/29 00:52:54;;;;;;;17.83;10.10;;;;;;;2.16;100.00;101981.88;2079899;28;20564;-73
2023/12/29 00:53:54;;;;;;;17.47;9.60;;;;;;;3.00;100.00;102092.00;2079857;28;20195;-73
2023/12/29 00:54:55;;;;;;;15.73;9.37;;;;;;;3.16;100.00;102128.50;2079794;28;20216;-73
2023/12/29 00:55:55;;;;;;;15.90;9.17;;;;;;;3.16;100.00;102117.53;2080315;28;20181;-73
2023/12/29 00:56:56;;;;;;;16.30;10.30;;;;;;;2.76;100.00;102045.50;2079403;28;20196;-73
2023/12/29 00:57:56;;;;;;;18.33;11.30;;;;;;;2.89;100.00;102065.44;2079229;28;20198;-73
2023/12/29 00:58:57;;;;;;;19.70;10.17;;;;;;;3.25;100.00;102115.47;2078517;28;20214;-73
2023/12/29 00:59:57;;;;;;;14.67;9.27;;;;;;;3.25;100.00;102115.47;2080108;28;20199;-73
2023/12/29 01:00:58;;;;;;;14.70;9.10;;;;;;;2.69;100.00;102014.38;2079463;28;20201;-73
2023/12/29 01:01:58;;;;;;;16.60;9.20;;;;;;;2.76;100.00;102031.81;2079923;28;20215;-73
2023/12/29 01:02:59;;;;;;;13.27;7.07;;;;;;;2.01;100.00;101903.28;2079203;28;20587;-73
2023/12/29 01:03:59;;;;;;;10.73;7.37;;;;;;;2.88;100.00;102039.22;2079825;28;20689;-73
2023/12/29 01:05:00;;;;;;;12.67;6.63;;;;;;;3.16;100.00;102087.41;2079028;28;20566;-73
2023/12/29 01:06:00;;;;;;;14.30;7.17;;;;;;;3.26;100.00;102108.84;2079773;28;20199;-73
2023/12/29 01:07:01;;;;;;;18.43;10.97;;;;;;;3.16;100.00;102105.78;2079203;28;20288;-73
2023/12/29 01:08:01;;;;;;;18.97;12.47;;;;;;;3.16;100.00;102113.97;2079661;28;20196;-73
2023/12/29 01:09:02;;;;;;;14.90;10.00;;;;;;;2.94;100.00;102081.63;2080022;28;20218;-73
2023/12/29 01:10:03;;;;;;;18.87;10.17;;;;;;;3.12;100.00;102107.59;2079859;28;20665;-74
2023/12/29 01:11:03;;;;;;;16.00;9.00;;;;;;;3.09;100.00;102113.78;2079219;28;20209;-73
2023/12/29 01:12:04;;;;;;;17.10;10.50;;;;;;;3.05;100.00;102118.34;2080337;28;20259;-73
2023/12/29 01:13:05;;;;;;;18.33;12.23;;;;;;;3.00;100.00;102110.38;2080255;28;20184;-73
2023/12/29 01:14:05;;;;;;;15.17;10.83;;;;;;;2.98;100.00;102118.94;2080091;28;20898;-73
2023/12/29 01:15:06;;;;;;;16.83;8.50;;;;;;;2.96;100.00;102118.50;2078973;28;20190;-73
2023/12/29 01:16:07;;;;;;;12.83;7.87;;;;;;;2.04;100.00;101973.66;2079115;28;21217;-73
2023/12/29 01:17:07;;;;;;;17.27;10.97;;;;;;;2.89;100.00;102104.59;2077542;28;20818;-73
2023/12/29 01:18:08;;;;;;;19.13;11.73;;;;;;;2.93;100.00;102124.66;2079769;28;20243;-73
2023/12/29 01:19:08;;;;;;;18.57;9.70;;;;;;;2.53;100.00;102049.09;2078924;28;20185;-74
2023/12/29 01:20:09;;;;;;;18.60;10.63;;;;;;;2.93;100.00;102107.44;2079265;28;20648;-74
2023/12/29 01:21:10;;;;;;;18.47;11.60;;;;;;;2.81;100.00;102085.53;2079804;28;20688;-73
2023/12/29 01:22:10;;;;;;;14.37;9.17;;;;;;;2.94;100.00;102098.06;2079372;28;20573;-73
2023/12/29 01:23:11;;;;;;;18.13;11.67;;;;;;;1.93;100.00;101942.44;2079575;28;20196;-74
2023/12/29 01:24:11;;;;;;;18.83;11.07;;;;;;;2.19;100.00;101981.97;2080054;28;20203;-73
2023/12/29 01:25:12;;;;;;;17.07;8.73;;;;;;;2.86;100.00;102088.84;2079125;28;20206;-73
2023/12/29 01:26:12;;;;;;;14.73;9.53;;;;;;;1.64;100.00;101901.72;2079062;28;20227;-74
2023/12/29 01:27:13;;;;;;;15.73;9.30;;;;;;;2.70;100.00;102057.84;2078473;28;20191;-73
2023/12/29 01:28:13;;;;;;;14.87;9.97;;;;;;;2.42;100.00;102026.84;2078608;28;20327;-74
2023/12/29 01:29:14;;;;;;;14.87;9.00;;;;;;;2.27;100.00;102022.06;2080410;28;20190;-73
2023/12/29 01:30:14;;;;;;;15.97;7.93;;;;;;;2.70;100.00;102076.19;2079019;28;20624;-73
2023/12/29 01:31:15;;;;;;;15.77;9.37;;;;;;;2.82;100.00;102092.63;2077431;28;20732;-73
2023/12/29 01:32:15;;;;;;;13.67;7.93;;;;;;;2.65;100.00;102073.69;2079457;28;20718;-72
2023/12/29 01:33:16;;;;;;;17.17;9.07;;;;;;;2.29;100.00;102024.47;2078766;28;20198;-73
2023/12/29 01:34:16;;;;;;;15.70;8.30;;;;;;;2.08;100.00;101986.31;2079834;28;20202;-73
2023/12/29 01:35:17;;;;;;;17.30;8.73;;;;;;;2.57;100.00;102080.09;2079636;28;20265;-73
2023/12/29 01:36:18;;;;;;;12.37;6.73;;;;;;;2.62;100.00;102093.56;2079245;28;20189;-73
2023/12/29 01:37:19;;;;;;;9.95;6.35;;;;;;;2.63;100.00;102133.47;2079526;28;20190;-73
2023/12/29 01:38:20;;;;;;;14.60;7.47;;;;;;;2.51;100.00;102074.06;2079359;28;20276;-74
2023/12/29 01:39:20;;;;;;;13.40;9.00;;;;;;;2.61;100.00;102084.53;2079667;28;20191;-73
2023/12/29 01:40:21;;;;;;;12.77;8.43;;;;;;;2.59;100.00;102075.06;2079569;28;20193;-74
2023/12/29 01:41:22;;;;;;;12.97;7.13;;;;;;;2.66;100.00;102088.97;2079283;28;20198;-73
2023/12/29 01:42:22;;;;;;;12.40;7.70;;;;;;;2.23;100.00;102012.16;2079567;28;20227;-73
2023/12/29 01:43:23;;;;;;;14.53;8.50;;;;;;;2.37;100.00;102045.44;2079352;28;20177;-73
2023/12/29 01:44:23;;;;;;;13.47;9.17;;;;;;;2.55;100.00;102079.63;2079145;28;20187;-73
2023/12/29 01:45:25;;;;;;;12.27;7.43;;;;;;;2.55;100.00;102076.91;2079347;28;20183;-73
2023/12/29 01:46:29;;;;;;;15.95;8.68;;;;;;;2.61;100.00;102081.00;2079339;28;20650;-73
2023/12/29 01:47:30;;;;;;;13.00;8.63;;;;;;;2.35;100.00;102048.53;2078101;28;20232;-73
2023/12/29 01:48:31;;;;;;;14.52;9.88;;;;;;;2.61;100.00;102083.72;2078607;28;20181;-73
2023/12/29 01:49:34;;;;;;;15.10;9.37;;;;;;;2.51;100.00;102067.78;2079568;28;20196;-73
2023/12/29 01:50:35;;;;;;;12.82;8.40;;;;;;;2.21;100.00;102023.44;2079200;28;20607;-72
2023/12/29 01:51:35;;;;;;;14.45;8.85;;;;;;;2.44;100.00;102060.16;2079613;28;20835;-73
2023/12/29 01:52:36;;;;;;;11.37;7.80;;;;;;;2.46;100.00;102060.59;2077712;28;21598;-73
2023/12/29 01:53:37;;;;;;;14.50;9.07;;;;;;;2.54;100.00;102073.38;2078107;28;20188;-73
2023/12/29 01:54:40;;;;;;;12.60;7.63;;;;;;;2.02;100.00;101984.16;2079423;28;20654;-73
2023/12/29 01:55:41;;;;;;;14.43;8.02;;;;;;;2.54;100.00;102072.56;2079264;28;20189;-74
2023/12/29 01:56:42;;;;;;;13.20;7.83;;;;;;;2.56;100.00;102064.84;2078196;28;20219;-74
2023/12/29 01:57:43;;;;;;;10.97;5.77;;;;;;;2.56;100.00;102073.03;2070560;28;20351;-73
2023/12/29 01:58:44;;;;;;;9.80;5.90;;;;;;;2.48;100.00;102058.34;2074654;28;20440;-73
2023/12/29 01:59:45;;;;;;;13.15;7.28;;;;;;;2.02;100.00;101986.88;2078869;28;20581;-73
2023/12/29 02:00:46;;;;;;;10.38;6.13;;;;;;;1.44;100.00;101894.41;2079359;28;20242;-73
2023/12/29 02:01:47;;;;;;;12.47;8.17;;;;;;;2.59;100.00;102064.94;2079486;28;20182;-74
2023/12/29 02:02:48;;;;;;;12.15;7.10;;;;;;;2.62;100.00;102077.13;2078960;28;20185;-73
2023/12/29 02:03:49;;;;;;;12.02;6.25;;;;;;;2.64;100.00;102059.22;2079222;28;20261;-74
2023/12/29 02:04:49;;;;;;;11.43;6.20;;;;;;;2.63;100.00;102063.09;2080043;28;20654;-73
2023/12/29 02:05:51;;;;;;;17.00;9.13;;;;;;;2.65;100.00;102062.75;2079192;28;20206;-73
2023/12/29 02:06:51;;;;;;;13.73;8.05;;;;;;;2.56;100.00;102042.94;2077496;28;20226;-73
2023/12/29 02:07:53;;;;;;;12.53;7.37;;;;;;;2.66;100.00;102058.84;2079322;28;20189;-73
2023/12/29 02:08:55;;;;;;;9.98;6.53;;;;;;;2.38;100.00;102001.34;2079318;28;20859;-74
2023/12/29 02:09:56;;;;;;;10.50;6.03;;;;;;;2.37;100.00;102007.16;2079508;28;20283;-73
2023/12/29 02:10:57;;;;;;;12.20;6.88;;;;;;;2.24;100.00;101976.28;2078560;28;20603;-72
2023/12/29 02:11:57;;;;;;;11.57;5.40;;;;;;;2.49;100.00;102012.59;2079295;28;20185;-73
2023/12/29 02:13:00;;;;;;;9.77;5.50;;;;;;;2.77;100.00;102049.84;2079156;28;20193;-73
2023/12/29 02:14:01;;;;;;;12.82;7.35;;;;;;;2.83;100.00;102051.19;2079823;28;20535;-73
2023/12/29 02:15:04;;;;;;;15.80;8.02;;;;;;;2.77;100.00;102044.38;2079164;28;20189;-73
2023/12/29 02:16:22;;;;;;;15.50;7.43;;;;;;;2.81;100.00;102048.00;2078782;28;20276;-73
2023/12/29 02:17:51;;;;;;;11.90;6.75;;;;;;;2.80;100.00;102042.88;2079072;28;20537;-74
2023/12/29 02:18:53;;;;;;;14.15;6.95;;;;;;;2.64;100.00;102031.03;2078226;28;20182;-73
2023/12/29 02:19:55;;;;;;;10.48;6.10;;;;;;;2.34;100.00;101977.75;2078383;28;20198;-74
2023/12/29 02:20:55;;;;;;;10.55;4.90;;;;;;;2.33;100.00;101962.47;2079091;28;20718;-73
2023/12/29 02:21:56;;;;;;;11.10;6.43;;;;;;;2.41;100.00;101975.25;2078710;28;20601;-73
2023/12/29 02:22:56;;;;;;;9.70;5.57;;;;;;;2.77;100.00;102021.69;2079308;28;20664;-73
2023/12/29 02:23:57;;;;;;;13.67;5.90;;;;;;;2.69;100.00;102017.94;2078652;28;20193;-73
2023/12/29 02:24:57;;;;;;;9.07;5.03;;;;;;;2.66;100.00;101993.16;2078510;28;20593;-73
2023/12/29 02:26:04;;;;;;;10.50;6.57;;;;;;;2.93;100.00;102033.50;2078108;28;20227;-73
2023/12/29 02:27:19;;;;;;;10.88;6.03;;;;;;;2.97;100.00;102035.19;2077600;28;20262;-73
2023/12/29 02:28:24;;;;;;;13.85;7.63;;;;;;;3.03;100.00;102022.84;2079158;28;20276;-73
2023/12/29 02:29:27;;;;;;;10.18;6.57;;;;;;;2.90;100.00;102012.28;2078528;28;20191;-73
2023/12/29 02:30:49;;;;;;;9.02;5.10;;;;;;;3.03;100.00;102022.84;2078530;28;20698;-73
2023/12/29 02:31:54;;;;;;;9.38;6.00;;;;;;;2.94;100.00;102004.97;2078978;28;20627;-73
2023/12/29 02:33:01;;;;;;;11.55;7.00;;;;;;;2.89;100.00;101997.81;2078555;28;20281;-73
2023/12/29 02:34:06;;;;;;;11.77;7.22;;;;;;;2.50;100.00;101940.31;2078269;28;20198;-73
2023/12/29 02:35:10;;;;;;;18.13;6.57;;;;;;;3.03;100.00;102031.06;2078460;28;20197;-73
2023/12/29 02:36:13;;;;;;;7.05;4.20;;;;;;;2.95;100.00;102009.28;2078281;28;20195;-73
2023/12/29 02:37:14;;;;;;;10.75;5.03;;;;;;;3.04;100.00;102018.16;2077762;28;20346;-73
2023/12/29 02:38:15;;;;;;;7.95;4.80;;;;;;;3.12;100.00;102026.22;2078217;28;20191;-73
2023/12/29 02:39:16;;;;;;;8.73;4.97;;;;;;;2.78;100.00;101969.31;2079083;28;20191;-73
2023/12/29 02:40:17;;;;;;;11.20;5.00;;;;;;;2.53;100.00;101942.38;2079093;28;20239;-73
2023/12/29 02:41:18;;;;;;;13.20;4.20;;;;;;;2.99;100.00;102016.44;2079322;28;20253;-73
2023/12/29 02:42:18;;;;;;;7.83;5.03;;;;;;;3.22;100.00;102023.00;2079055;28;20276;-73
2023/12/29 02:43:19;;;;;;;10.30;4.80;;;;;;;3.20;100.00;102011.59;2078422;28;20613;-73
2023/12/29 02:44:19;;;;;;;8.00;5.00;;;;;;;2.65;100.00;101925.91;2078353;28;20294;-73
2023/12/29 02:45:20;;;;;;;7.50;4.33;;;;;;;3.27;100.00;102022.75;2078324;28;20187;-73
2023/12/29 02:46:21;;;;;;;10.13;5.80;;;;;;;3.29;100.00;102019.66;2078203;28;20235;-73
2023/12/29 02:47:22;;;;;;;11.20;4.37;;;;;;;3.35;100.00;102018.25;2078277;28;20191;-73
2023/12/29 02:48:22;;;;;;;8.83;5.73;;;;;;;3.37;100.00;102011.28;2079473;28;20198;-74
2023/12/29 02:49:23;;;;;;;8.97;4.63;;;;;;;3.43;100.00;102011.81;2078842;28;20199;-73
2023/12/29 02:50:23;;;;;;;6.53;3.70;;;;;;;3.22;100.00;101984.66;2079214;28;20288;-73
2023/12/29 02:51:24;;;;;;;6.67;4.00;;;;;;;3.44;100.00;102019.69;2078288;28;20229;-73
2023/12/29 02:52:24;;;;;;;9.23;5.30;;;;;;;3.47;100.00;102018.19;2079207;28;20217;-74
2023/12/29 02:53:25;;;;;;;9.47;5.57;;;;;;;2.88;100.00;101941.44;2078172;28;20275;-73
2023/12/29 02:54:25;;;;;;;11.67;5.83;;;;;;;3.47;100.00;102012.72;2079368;28;20203;-73
2023/12/29 02:55:26;;;;;;;12.63;5.40;;;;;;;3.55;100.00;102017.25;2078957;28;20184;-73
2023/12/29 02:56:26;;;;;;;9.23;4.90;;;;;;;3.51;100.00;101994.41;2078226;28;20595;-73
2023/12/29 02:57:27;;;;;;;9.67;5.43;;;;;;;3.18;100.00;101930.91;2078472;28;20672;-73
2023/12/29 02:58:27;;;;;;;12.93;5.63;;;;;;;3.73;100.00;102010.25;2079168;28;20225;-73
2023/12/29 02:59:28;;;;;;;10.80;6.17;;;;;;;3.75;100.00;102007.97;2079239;28;20191;-72
2023/12/29 03:00:28;;;;;;;6.60;4.60;;;;;;;3.78;100.00;102016.28;2078064;28;20286;-73
2023/12/29 03:01:29;;;;;;;10.47;5.77;;;;;;;3.63;100.00;101981.44;2078955;28;20271;-74
2023/12/29 03:02:29;;;;;;;10.20;5.33;;;;;;;3.91;100.00;102006.03;2079047;28;20183;-74
2023/12/29 03:03:30;;;;;;;8.03;4.73;;;;;;;3.90;100.00;102002.50;2079232;28;20218;-73
2023/12/29 03:04:30;;;;;;;8.00;4.90;;;;;;;4.00;100.00;102009.41;2079129;28;20215;-73
2023/12/29 03:05:31;;;;;;;8.30;4.57;;;;;;;4.11;100.00;102010.47;2078088;28;20193;-73
2023/12/29 03:06:31;;;;;;;8.60;4.90;;;;;;;4.33;100.00;102013.34;2079045;28;20577;-73
2023/12/29 03:07:32;;;;;;;8.13;5.10;;;;;;;4.47;100.00;102013.66;2077478;28;20220;-73
2023/12/29 03:08:32;;;;;;;12.70;6.80;;;;;;;4.47;100.00;102010.13;2078836;28;20200;-73
2023/12/29 03:09:33;;;;;;;10.27;5.83;;;;;;;4.39;100.00;102003.69;2079198;28;20279;-73
2023/12/29 03:10:33;;;;;;;7.20;4.83;;;;;;;4.51;100.00;102011.78;2078608;28;20191;-73
2023/12/29 03:11:34;;;;;;;9.17;5.30;;;;;;;4.55;100.00;102015.44;2078968;28;20228;-73
2023/12/29 03:12:35;;;;;;;10.17;5.70;;;;;;;4.62;100.00;102017.53;2079389;28;20211;-74
2023/12/29 03:13:35;;;;;;;9.67;5.30;;;;;;;4.63;100.00;102017.19;2078769;28;20215;-73
2023/12/29 03:14:36;;;;;;;8.30;4.10;;;;;;;3.73;100.00;101863.03;2079162;28;20442;-73
2023/12/29 03:15:36;;;;;;;8.80;4.90;;;;;;;4.83;100.00;102010.53;2078807;28;20209;-73
2023/12/29 03:16:37;;;;;;;10.10;4.90;;;;;;;4.66;100.00;101952.53;2078569;28;20198;-73
2023/12/29 03:17:37;;;;;;;8.17;5.40;;;;;;;5.00;100.00;102012.88;2077921;28;20247;-73
2023/12/29 03:18:39;;;;;;;6.30;4.33;;;;;;;4.46;100.00;101924.25;2079098;28;20271;-73
2023/12/29 03:19:40;;;;;;;10.60;5.47;;;;;;;4.84;100.00;101968.22;2078608;28;20192;-73
2023/12/29 03:20:41;;;;;;;10.13;5.83;;;;;;;5.28;100.00;102012.66;2079649;28;20214;-73
2023/12/29 03:21:41;;;;;;;7.70;5.13;;;;;;;5.27;100.00;102000.06;2079186;28;20283;-73
2023/12/29 03:22:41;;;;;;;12.53;5.43;;;;;;;4.90;100.00;101936.53;2078342;28;20200;-75
2023/12/29 03:23:42;;;;;;;9.40;5.83;;;;;;;5.44;100.00;101994.91;2078534;28;20192;-74
2023/12/29 03:24:43;;;;;;;9.17;5.70;;;;;;;5.33;100.00;101977.41;2078811;28;20196;-73
2023/12/29 03:25:43;;;;;;;9.10;5.40;;;;;;;5.48;100.00;102011.50;2078278;28;20295;-72
2023/12/29 03:26:44;;;;;;;12.00;5.63;;;;;;;5.37;100.00;101972.78;2078275;28;20176;-73
2023/12/29 03:27:44;;;;;;;10.17;5.33;;;;;;;5.48;100.00;101995.75;2079066;28;20185;-73
2023/12/29 03:28:45;;;;;;;9.23;5.47;;;;;;;5.69;100.00;102009.91;2079465;28;20189;-73
2023/12/29 03:29:45;;;;;;;12.03;6.07;;;;;;;5.26;100.00;101935.25;2078511;28;20200;-73
2023/12/29 03:30:46;;;;;;;11.57;5.17;;;;;;;5.80;100.00;102013.66;2079141;28;20184;-73
2023/12/29 03:31:46;;;;;;;11.23;5.57;;;;;;;5.07;100.00;101913.31;2078559;28;20254;-73
2023/12/29 03:32:47;;;;;;;9.07;5.17;;;;;;;5.48;100.00;101964.75;2079038;28;20186;-73
2023/12/29 03:33:48;;;;;;;10.40;5.60;;;;;;;5.30;100.00;101934.19;2078139;28;20193;-73
2023/12/29 03:34:48;;;;;;;8.70;6.10;;;;;;;5.84;100.00;102017.28;2078661;28;20212;-73
2023/12/29 03:35:49;;;;;;;10.47;5.57;;;;;;;5.18;100.00;101892.34;2078822;28;20193;-73
2023/12/29 03:36:49;;;;;;;11.37;5.13;;;;;;;6.00;100.00;102011.66;2077521;28;21198;-74
2023/12/29 03:37:50;;;;;;;11.17;5.97;;;;;;;5.75;100.00;101977.41;2078987;28;20188;-73
2023/12/29 03:38:50;;;;;;;10.57;5.70;;;;;;;5.96;100.00;102005.28;2078796;28;20195;-73
2023/12/29 03:39:51;;;;;;;8.63;5.50;;;;;;;5.83;100.00;101993.69;2078809;28;20460;-73
2023/12/29 03:40:51;;;;;;;9.20;5.93;;;;;;;5.88;100.00;101996.13;2080200;28;20595;-73
2023/12/29 03:41:52;;;;;;;8.20;5.43;;;;;;;5.41;100.00;101918.66;2080403;28;20654;-73
2023/12/29 03:42:52;;;;;;;8.40;5.27;;;;;;;5.88;100.00;101987.88;2080256;28;20662;-73
2023/12/29 03:43:53;;;;;;;11.30;6.37;;;;;;;6.13;100.00;102013.84;2080612;28;20717;-73
2023/12/29 03:44:53;;;;;;;12.47;6.67;;;;;;;6.05;100.00;102003.09;2080592;28;20250;-73
2023/12/29 03:45:54;;;;;;;11.00;5.83;;;;;;;6.09;100.00;102006.69;2080856;28;20181;-73
2023/12/29 03:46:54;;;;;;;10.67;5.80;;;;;;;6.07;100.00;102012.56;2080074;28;20192;-73
2023/12/29 03:47:55;;;;;;;10.63;6.17;;;;;;;5.85;100.00;101971.31;2080472;28;20569;-73
2023/12/29 03:48:55;;;;;;;11.47;5.43;;;;;;;5.05;100.00;101852.44;2080145;28;20292;-73
2023/12/29 03:49:56;;;;;;;14.10;6.43;;;;;;;5.97;100.00;102010.44;2080400;28;20203;-73
2023/12/29 03:50:56;;;;;;;13.17;6.23;;;;;;;5.92;100.00;102012.69;2080378;28;20281;-74
2023/12/29 03:51:56;;;;;;;9.50;6.03;;;;;;;5.75;100.00;101991.16;2080082;28;20246;-73
2023/12/29 03:52:57;;;;;;;10.53;5.87;;;;;;;5.95;100.00;102004.50;2080334;28;20212;-73
2023/12/29 03:54:00;;;;;;;8.37;5.37;;;;;;;5.94;100.00;102007.63;2080869;28;20211;-73
2023/12/29 03:55:01;;;;;;;9.30;5.47;;;;;;;6.01;100.00;102016.00;2080595;28;20628;-73
2023/12/29 03:56:08;;;;;;;10.10;5.43;;;;;;;6.00;100.00;102009.69;2080067;28;20193;-73
2023/12/29 03:57:09;;;;;;;8.50;4.93;;;;;;;6.01;100.00;102003.00;2079541;28;20191;-73
2023/12/29 03:58:09;;;;;;;9.13;5.77;;;;;;;5.75;100.00;101971.91;2080588;28;20192;-73
2023/12/29 03:59:10;;;;;;;8.60;4.97;;;;;;;5.53;100.00;101934.19;2080219;28;20192;-73
2023/12/29 04:00:14;;;;;;;12.90;5.77;;;;;;;6.04;100.00;102005.03;2080451;28;20212;-73
2023/12/29 04:01:17;;;;;;;10.75;4.82;;;;;;;6.07;100.00;102009.00;2087656;28;20191;-73
2023/12/29 04:02:17;;;;;;;10.27;5.30;;;;;;;6.10;100.00;102006.31;2088138;28;20188;-73
2023/12/29 04:03:18;;;;;;;14.63;5.00;;;;;;;6.02;100.00;102001.06;2080337;28;20720;-73
2023/12/29 04:04:18;;;;;;;10.23;5.17;;;;;;;5.46;100.00;101901.88;2080884;28;20181;-72
2023/12/29 04:05:19;;;;;;;10.13;4.80;;;;;;;6.12;100.00;102022.47;2080296;28;20816;-73
2023/12/29 04:06:19;;;;;;;10.17;5.47;;;;;;;6.17;100.00;102002.88;2080354;28;20678;-74
2023/12/29 04:07:20;;;;;;;9.23;4.93;;;;;;;6.08;100.00;101983.06;2079555;28;20624;-73
2023/12/29 04:08:20;;;;;;;8.37;4.73;;;;;;;6.20;100.00;101997.44;2080084;28;20623;-73
2023/12/29 04:09:21;;;;;;;7.43;4.43;;;;;;;6.32;100.00;102004.69;2080493;28;20651;-73
2023/12/29 04:10:21;;;;;;;8.43;4.97;;;;;;;5.95;100.00;101937.66;2080258;28;20702;-73
2023/12/29 04:11:22;;;;;;;6.53;4.47;;;;;;;6.38;100.00;102004.03;2080165;28;20205;-72
2023/12/29 04:12:22;;;;;;;8.17;4.33;;;;;;;6.35;100.00;101998.47;2080798;28;20210;-73
2023/12/29 04:13:23;;;;;;;7.13;4.43;;;;;;;6.16;100.00;101966.28;2080369;28;20636;-73
2023/12/29 04:14:23;;;;;;;7.53;3.90;;;;;;;6.18;100.00;101957.69;2079724;28;20217;-73
2023/12/29 04:15:24;;;;;;;10.20;5.00;;;;;;;6.47;100.00;102001.78;2080037;28;20670;-74
2023/12/29 04:16:24;;;;;;;7.20;4.00;;;;;;;6.47;100.00;101993.50;2080146;28;20286;-73
2023/12/29 04:17:25;;;;;;;7.23;3.80;;;;;;;6.49;100.00;101993.94;2079382;28;20605;-73
2023/12/29 04:18:26;;;;;;;8.33;4.73;;;;;;;6.21;100.00;101952.22;2079670;28;20579;-73
2023/12/29 04:19:26;;;;;;;7.03;4.40;;;;;;;6.57;100.00;101994.84;2079601;28;20676;-73
2023/12/29 04:20:27;;;;;;;8.37;4.80;;;;;;;6.63;100.00;101996.09;2080785;28;20190;-73
2023/12/29 04:21:27;;;;;;;6.83;4.00;;;;;;;5.51;100.00;101807.28;2080412;28;20177;-72
2023/12/29 04:22:28;;;;;;;6.70;3.57;;;;;;;6.60;100.00;101978.38;2087677;28;20198;-72
2023/12/29 04:23:28;;;;;;;6.13;3.40;;;;;;;6.77;100.00;101999.84;2087828;28;20234;-74
2023/12/29 04:24:30;;;;;;;6.50;3.50;;;;;;;6.74;100.00;101997.84;2079380;28;20260;-73
2023/12/29 04:25:30;;;;;;;7.68;4.22;;;;;;;6.76;100.00;101997.47;2079619;28;20589;-73
2023/12/29 04:26:38;;;;;;;6.50;3.40;;;;;;;6.77;100.00;102004.56;2079935;28;20190;-73
2023/12/29 04:27:40;;;;;;;4.72;3.17;;;;;;;6.26;100.00;101920.84;2080145;28;20533;-73
2023/12/29 04:28:42;;;;;;;9.00;3.65;;;;;;;6.18;100.00;101910.88;2079622;28;20193;-73
2023/12/29 04:29:44;;;;;;;7.95;3.75;;;;;;;6.37;100.00;101939.09;2080016;28;20188;-74
2023/12/29 04:30:45;;;;;;;8.60;4.30;;;;;;;6.62;100.00;101951.22;2080621;28;20195;-73
2023/12/29 04:31:45;;;;;;;5.60;4.27;;;;;;;6.88;100.00;101989.75;2080081;28;20230;-73
2023/12/29 04:32:46;;;;;;;7.53;4.07;;;;;;;6.75;100.00;101966.38;2079986;28;20276;-73
2023/12/29 04:33:46;;;;;;;8.93;4.30;;;;;;;6.97;100.00;102006.78;2080228;28;20208;-73
2023/12/29 04:34:47;;;;;;;6.27;4.07;;;;;;;6.97;100.00;101992.25;2080247;28;20199;-73
2023/12/29 04:35:47;;;;;;;8.97;4.10;;;;;;;7.17;100.00;102008.22;2079657;28;20230;-73
2023/12/29 04:36:48;;;;;;;7.30;3.67;;;;;;;7.08;100.00;101990.41;2079261;28;20197;-73
2023/12/29 04:37:49;;;;;;;7.47;3.70;;;;;;;7.03;100.00;101991.50;2079966;28;20766;-73
2023/12/29 04:38:49;;;;;;;7.07;3.90;;;;;;;7.07;100.00;101986.06;2080661;28;20652;-73
2023/12/29 04:39:50;;;;;;;6.93;3.97;;;;;;;7.16;100.00;102003.88;2079466;28;20757;-73
2023/12/29 04:40:50;;;;;;;6.30;3.77;;;;;;;7.05;100.00;101988.38;2080112;28;20671;-73